Latest Weather Observations for Kalgoorlie-Boulder

IDW60801

Issued at 5:35 pm WST Wednesday 23 April 2014 (issued every 30 minutes, with the page automatically refreshed every 10 minutes)

About weather observations | Map of weather stations | Latest weather observations for WA | Other Formats
Station Details ID: 012038 Name: KALGOORLIE-BOULDER AIRPORT Lat: -30.78 Lon: 121.45 Height: 365.3 m
Data from the previous 72 hours. | See also: Recent months at Kalgoorlie-Boulder
Date/Time
WST
Temp
°C
App
Temp
°C
Dew
Point
Rel
Hum
%
Delta-T
°C
Wind Press
QNH
hPa
Press
MSL
hPa
Rain
since 9 am
mm
Dir
 
Spd
km/h
Gust
km/h
Spd
kts
Gust
kts
23/05:30pm 24.6 19.9 6.0 30 9.7 SE 20 26 11 14 1014.7 - 0.0
23/05:00pm 25.4 19.5 5.6 28 10.3 ESE 26 33 14 18 1014.5 - 0.0
23/04:30pm 26.6 24.2 6.8 28 10.6 SSE 9 13 5 7 1014.2 - 0.0
23/04:00pm 26.7 23.8 6.7 28 10.7 SSE 11 15 6 8 1014.2 - 0.0
23/03:30pm 27.0 23.9 5.7 25 11.2 SSE 11 19 6 10 1014.2 - 0.0
23/03:00pm 27.4 25.4 6.4 26 11.2 SSW 6 17 3 9 1013.9 1012.7 0.0
23/02:30pm 28.3 26.2 6.8 25 11.6 SSW 7 13 4 7 1014.1 - 0.0
23/02:00pm 27.4 24.5 6.7 27 11.1 SSE 11 15 6 8 1014.3 - 0.0
23/01:30pm 27.1 24.3 6.8 27 10.9 E 11 17 6 9 1014.5 - 0.0
23/01:00pm 27.6 26.2 7.3 27 11.0 SSE 4 13 2 7 1015.0 - 0.0
23/12:30pm 26.9 24.1 7.0 28 10.7 N 11 17 6 9 1015.3 - 0.0
23/12:00pm 26.7 24.9 7.2 29 10.5 NW 6 11 3 6 1015.8 1014.6 0.0
23/11:30am 25.7 23.7 7.2 30 9.9 ENE 7 15 4 8 1016.4 - 0.0
23/11:00am 25.2 22.8 7.0 31 9.7 N 9 17 5 9 1016.9 - 0.0
23/10:30am 24.6 21.3 6.5 31 9.5 N 13 19 7 10 1017.3 - 0.0
23/10:00am 23.0 19.7 6.2 33 8.7 N 13 19 7 10 1017.7 - 0.0
23/09:30am 21.6 18.2 5.9 36 8.0 N 13 17 7 9 1018.0 - 0.0
23/09:00am 20.2 17.3 6.5 41 7.0 N 11 17 6 9 1018.2 1017.0 0.0
23/08:30am 19.1 15.7 6.0 42 6.6 N 13 22 7 12 1018.3 - 0.0
23/08:00am 16.8 14.1 5.6 47 5.5 N 9 13 5 7 1018.3 - 0.0
23/07:30am 15.5 13.1 5.4 51 4.9 N 7 11 4 6 1018.2 - 0.0
23/07:00am 13.9 11.8 5.6 57 4.0 NNW 6 7 3 4 1017.8 - 0.0
23/06:30am 13.1 10.7 5.1 58 3.8 N 7 9 4 5 1017.4 - 0.0
23/06:00am 13.2 10.7 4.7 56 4.0 N 7 11 4 6 1017.1 1016.0 0.0
23/05:30am 13.4 10.9 4.7 55 4.1 N 7 11 4 6 1016.9 - 0.0
23/05:00am 14.0 11.1 4.7 53 4.4 N 9 13 5 7 1016.6 - 0.0
23/04:30am 13.9 11.4 4.6 53 4.4 N 7 13 4 7 1016.6 - 0.0
23/04:00am 14.1 11.1 4.3 51 4.6 N 9 15 5 8 1016.4 - 0.0
23/03:30am 14.8 11.8 4.2 49 5.0 NNE 9 15 5 8 1016.3 - 0.0
23/03:00am 15.2 11.7 3.6 46 5.4 NE 11 15 6 8 1016.4 1015.3 0.0
23/02:30am 15.1 11.9 2.9 44 5.6 NNE 9 13 5 7 1016.9 - 0.0
23/02:00am 14.7 11.8 2.6 44 5.5 NNE 7 11 4 6 1017.0 - 0.0
23/01:30am 15.5 11.7 2.0 40 6.1 NNE 11 15 6 8 1017.2 - 0.0
23/01:00am 14.1 10.9 3.2 48 5.0 NNE 9 11 5 6 1017.6 - 0.0
23/12:30am 14.4 11.6 2.1 43 5.5 NNE 6 9 3 5 1017.8 - 0.0
23/12:00am 13.5 10.6 1.4 43 5.3 NNE 6 7 3 4 1017.9 1016.7 0.0
 
Date/Time
WST
Temp
°C
App
Temp
°C
Dew
Point
Rel
Hum
%
Delta-T
°C
Wind Press
QNH
hPa
Press
MSL
hPa
Rain
since 9 am
mm
Dir
 
Spd
km/h
Gust
km/h
Spd
kts
Gust
kts
22/11:30pm 13.4 11.6 0.9 42 5.4 CALM 0 0 0 0 1018.3 - 0.0
22/11:00pm 14.0 12.3 2.1 44 5.3 CALM 0 0 0 0 1018.7 - 0.0
22/10:30pm 13.9 11.5 2.0 44 5.3 ESE 4 7 2 4 1018.7 - 0.0
22/10:00pm 14.1 12.6 2.9 47 5.1 CALM 0 4 0 2 1018.8 - 0.0
22/09:30pm 14.1 11.3 3.4 48 4.9 SE 7 9 4 5 1018.8 - 0.0
22/09:00pm 14.7 13.0 2.0 42 5.7 CALM 0 0 0 0 1019.0 1017.9 0.0
22/08:30pm 15.1 11.9 2.9 44 5.6 SE 9 11 5 6 1019.1 - 0.0
22/08:00pm 16.3 12.8 1.0 35 6.8 SE 9 9 5 5 1019.2 - 0.0
22/07:30pm 16.5 13.6 2.6 39 6.4 ESE 7 9 4 5 1019.2 - 0.0
22/07:00pm 17.0 14.0 1.8 36 6.9 SSE 7 9 4 5 1019.0 - 0.0
22/06:30pm 18.1 14.6 1.1 32 7.7 SSE 9 11 5 6 1018.8 - 0.0
22/06:00pm 18.8 15.3 1.3 31 8.0 SSE 9 11 5 6 1018.6 1017.4 0.0
22/05:30pm 19.6 16.6 2.0 31 8.2 SE 7 9 4 5 1018.5 - 0.0
22/05:00pm 22.0 18.6 2.0 26 9.5 ENE 9 11 5 6 1018.3 - 0.0
22/04:30pm 22.6 19.9 2.8 27 9.6 ENE 6 13 3 7 1018.3 - 0.0
22/04:00pm 22.6 19.8 3.1 28 9.5 ESE 7 13 4 7 1018.3 - 0.0
22/03:30pm 22.6 19.9 2.4 26 9.7 SW 6 11 3 6 1018.3 - 0.0
22/03:00pm 22.9 19.6 2.7 26 9.8 ENE 9 20 5 11 1018.4 1017.2 0.0
22/02:30pm 22.3 18.6 2.6 27 9.5 E 11 20 6 11 1018.6 - 0.0
22/02:00pm 22.8 19.3 3.5 28 9.5 E 11 22 6 12 1018.6 - 0.0
22/01:30pm 21.5 17.6 3.4 30 8.8 NNE 13 19 7 10 1018.9 - 0.0
22/01:00pm 21.4 18.3 3.8 31 8.6 NE 9 17 5 9 1019.3 - 0.0
22/12:30pm 20.9 17.0 3.6 32 8.4 E 13 20 7 11 1019.7 - 0.0
22/12:00pm 20.2 16.8 4.0 34 7.9 E 11 20 6 11 1020.6 1019.4 0.0
22/11:30am 20.0 16.4 4.8 36 7.5 E 13 19 7 10 1021.2 - 0.0
22/11:00am 19.1 15.5 4.8 39 7.0 ENE 13 20 7 11 1021.5 - 0.0
22/10:30am 18.5 15.0 5.3 42 6.5 ENE 13 20 7 11 1022.1 - 0.0
22/10:00am 17.3 13.7 5.2 45 5.9 ENE 13 19 7 10 1022.5 - 0.0
22/09:30am 16.4 12.0 5.0 47 5.5 E 17 22 9 12 1022.6 - 0.0
22/09:00am 15.8 11.4 5.0 48 5.2 ENE 17 24 9 13 1022.7 1021.6 0.0
22/08:30am 14.5 9.8 5.3 54 4.4 NE 19 26 10 14 1022.7 - 0.0
22/08:00am 13.6 9.8 5.9 59 3.7 ENE 15 22 8 12 1022.8 - 0.0
22/07:30am 12.6 8.4 5.9 63 3.2 ENE 17 22 9 12 1022.6 - 0.0
22/07:00am 11.1 8.1 5.8 70 2.5 E 11 15 6 8 1022.3 - 0.0
22/06:30am 9.3 6.1 5.2 75 1.9 E 11 13 6 7 1022.1 - 0.0
22/06:00am 9.4 6.2 5.3 75 1.9 E 11 17 6 9 1021.7 1020.6 0.0
22/05:30am 9.7 5.7 5.1 73 2.1 ESE 15 19 8 10 1021.6 - 0.0
22/05:00am 9.4 5.4 5.0 74 2.0 ESE 15 17 8 9 1021.3 - 0.0
22/04:30am 9.9 5.9 5.1 72 2.2 SE 15 19 8 10 1021.0 - 0.0
22/04:00am 10.0 6.8 5.0 71 2.3 SE 11 13 6 7 1020.8 - 0.0
22/03:30am 10.6 7.4 5.0 68 2.6 SE 11 15 6 8 1020.6 - 0.0
22/03:00am 10.4 8.1 5.0 69 2.5 SSE 6 9 3 5 1020.3 1019.2 0.0
22/02:30am 10.8 8.3 5.0 67 2.7 SSE 7 11 4 6 1020.5 - 0.0
22/02:00am 11.2 8.0 5.2 66 2.8 ESE 11 15 6 8 1020.5 - 0.0
22/01:30am 11.7 7.7 5.1 64 3.1 ESE 15 19 8 10 1020.7 - 0.0
22/01:00am 12.2 7.9 5.2 62 3.3 ESE 17 20 9 11 1020.7 - 0.0
22/12:30am 12.5 9.0 5.3 61 3.4 ESE 13 17 7 9 1020.7 - 0.0
22/12:00am 13.3 8.9 5.0 57 3.9 ESE 17 20 9 11 1020.6 1019.4 0.0
 
Date/Time
WST
Temp
°C
App
Temp
°C
Dew
Point
Rel
Hum
%
Delta-T
°C
Wind Press
QNH
hPa
Press
MSL
hPa
Rain
since 9 am
mm
Dir
 
Spd
km/h
Gust
km/h
Spd
kts
Gust
kts
21/11:30pm 14.0 9.2 4.7 53 4.4 SE 19 24 10 13 1020.5 - 0.0
21/11:00pm 14.0 9.6 4.9 54 4.3 SE 17 22 9 12 1020.3 - 0.0
21/10:30pm 14.3 11.1 5.3 54 4.3 SE 11 15 6 8 1020.3 - 0.0
21/10:00pm 13.6 10.6 5.9 59 3.7 S 11 13 6 7 1020.2 - 0.0
21/09:30pm 14.7 12.1 6.3 57 4.1 SE 9 11 5 6 1020.1 - 0.0
21/09:00pm 14.3 12.2 6.6 60 3.8 SE 7 9 4 5 1020.1 1019.0 0.0
21/08:30pm 15.6 13.2 6.8 56 4.4 SE 9 13 5 7 1020.0 - 0.0
21/08:00pm 15.7 14.2 6.9 56 4.4 SE 4 6 2 3 1019.8 - 0.0
21/07:30pm 16.5 14.5 7.0 53 4.8 SE 7 9 4 5 1019.4 - 0.0
21/07:00pm 17.2 14.9 7.4 52 5.0 ESE 9 15 5 8 1019.2 - 0.0
21/06:30pm 17.8 14.6 7.0 49 5.5 ESE 13 15 7 8 1018.9 - 0.0
21/06:00pm 18.9 15.7 7.0 46 6.1 SE 13 17 7 9 1018.5 1017.3 0.0
21/05:30pm 19.6 16.8 7.0 44 6.5 SSE 11 17 6 9 1018.0 - 0.0
21/05:00pm 21.0 17.1 5.3 36 7.9 SSE 15 24 8 13 1017.7 - 0.0
21/04:30pm 21.2 17.0 5.9 37 7.8 SSE 17 26 9 14 1017.3 - 0.0
21/04:00pm 21.5 19.1 6.9 38 7.6 S 9 17 5 9 1017.2 - 0.0
21/03:30pm 21.1 17.4 6.3 38 7.6 SSW 15 20 8 11 1017.0 - 0.0
21/03:00pm 21.2 19.0 8.0 42 7.0 S 9 17 5 9 1016.8 1015.7 0.0
21/02:30pm 21.4 18.4 7.8 41 7.2 S 13 22 7 12 1016.7 - 0.0
21/02:00pm 21.2 18.1 7.2 40 7.3 S 13 20 7 11 1016.7 - 0.0
21/01:30pm 21.4 18.1 8.0 42 7.1 SSE 15 22 8 12 1016.5 - 0.0
21/01:00pm 20.4 17.7 9.0 48 6.1 SSW 13 20 7 11 1016.9 - 0.0
21/12:30pm 20.0 16.7 9.7 51 5.6 S 17 24 9 13 1017.2 - 0.0
21/12:00pm 19.8 16.7 10.3 54 5.2 S 17 24 9 13 1017.3 1016.2 0.0
21/11:30am 19.8 17.8 10.1 53 5.3 SE 11 19 6 10 1017.7 - 0.0
21/11:00am 18.4 16.1 10.5 60 4.3 SSE 13 22 7 12 1017.9 - 0.0
21/10:30am 18.1 14.7 10.4 60 4.2 SE 19 26 10 14 1018.1 - 0.0
21/10:00am 18.3 14.7 10.4 60 4.3 S 20 26 11 14 1018.2 - 0.0
21/09:30am 17.9 14.1 9.7 58 4.4 SSE 20 28 11 15 1018.1 - 0.0
21/09:00am 18.5 14.9 9.8 57 4.7 SE 19 32 10 17 1017.8 1016.6 0.0
21/08:30am 17.9 14.2 10.1 60 4.2 SE 20 26 11 14 1017.6 - 0.0
21/08:00am 16.7 14.0 10.4 66 3.4 SSE 15 20 8 11 1017.1 - 0.0
21/07:30am 16.2 13.3 10.9 71 2.9 SSE 17 22 9 12 1016.8 - 0.0
21/07:00am 15.9 12.9 10.7 71 2.8 SSE 17 22 9 12 1016.4 - 0.0
21/06:30am 15.8 13.2 10.6 71 2.8 SSE 15 20 8 11 1016.0 - 0.0
21/06:00am 15.8 13.7 11.0 73 2.6 SSE 13 20 7 11 1015.9 1014.7 0.0
21/05:30am 15.9 13.9 11.5 75 2.4 SSE 13 17 7 9 1015.6 - 0.0
21/05:00am 15.8 13.5 11.8 77 2.2 SSE 15 24 8 13 1015.3 - 0.0
21/04:30am 15.9 13.7 12.1 78 2.1 SE 15 20 8 11 1014.8 - 0.0
21/04:00am 15.5 13.3 12.1 80 1.9 SE 15 19 8 10 1014.3 - 0.0
21/03:30am 15.7 13.4 11.9 78 2.1 SSE 15 20 8 11 1014.0 - 0.0
21/03:00am 15.9 13.2 11.7 76 2.3 SSE 17 24 9 13 1013.8 1012.6 0.0
21/02:30am 16.4 13.1 11.5 73 2.7 SSE 20 30 11 16 1013.5 - 0.0
21/02:00am 16.8 13.5 10.9 68 3.2 SSE 19 30 10 16 1013.3 - 0.0
21/01:30am 17.3 13.7 10.7 65 3.6 SSE 20 30 11 16 1013.1 - 0.0
21/01:00am 17.8 14.4 10.7 63 3.9 SSE 19 28 10 15 1012.9 - 0.0
21/12:30am 18.2 14.6 10.7 61 4.1 SSE 20 32 11 17 1012.7 - 0.0
21/12:00am 18.3 15.3 10.8 61 4.1 SSE 17 28 9 15 1012.2 1011.0 0.0
 
Date/Time
WST
Temp
°C
App
Temp
°C
Dew
Point
Rel
Hum
%
Delta-T
°C
Wind Press
QNH
hPa
Press
MSL
hPa
Rain
since 9 am
mm
Dir
 
Spd
km/h
Gust
km/h
Spd
kts
Gust
kts
20/11:30pm 18.7 16.1 10.7 59 4.4 SSE 15 20 8 11 1011.8 - 0.0
20/11:00pm 19.0 16.8 10.9 59 4.5 S 13 22 7 12 1011.9 - 0.0
20/10:30pm 19.4 16.7 10.5 56 4.9 SSE 15 20 8 11 1012.1 - 0.0
20/10:00pm 20.1 17.1 10.5 54 5.3 SSE 17 26 9 14 1012.1 - 0.0
20/09:30pm 20.6 18.3 10.3 51 5.7 SSE 13 17 7 9 1012.0 - 0.0
20/09:00pm 20.9 18.9 10.2 50 5.9 SE 11 15 6 8 1011.8 1010.6 0.0
20/08:30pm 21.4 19.5 10.4 49 6.1 SSE 11 15 6 8 1011.5 - 0.0
20/08:00pm 22.2 20.2 10.3 46 6.6 SE 11 15 6 8 1011.3 - 0.0
20/07:30pm 22.8 20.4 10.2 44 7.0 SSE 13 19 7 10 1011.2 - 0.0
20/07:00pm 23.3 20.6 10.2 43 7.3 SE 15 24 8 13 1011.0 - 0.0
20/06:30pm 23.9 20.9 9.2 39 8.1 SSE 15 22 8 12 1010.7 - 0.0
20/06:00pm 24.3 21.1 9.8 40 8.1 SE 17 24 9 13 1010.3 1009.1 0.0

Other Formats:

Comma delimited format used in spreadsheet applications
http://www.bom.gov.au/fwo/IDW60801/IDW60801.94637.axf

JavaScript Object Notation format (JSON) in row-major order
http://www.bom.gov.au/fwo/IDW60801/IDW60801.94637.json